sensor_id;sensor_type;location;lat;lon;timestamp;P1;durP1;ratioP1;P2;durP2;ratioP2
44987;SDS011;35735;52.226;21.254;2022-12-18T00:01:35;31.80;;;18.70;;
44987;SDS011;35735;52.226;21.254;2022-12-18T00:06:37;29.85;;;17.70;;
44987;SDS011;35735;52.226;21.254;2022-12-18T00:11:37;32.78;;;18.95;;
44987;SDS011;35735;52.226;21.254;2022-12-18T00:16:38;31.95;;;18.87;;
44987;SDS011;35735;52.226;21.254;2022-12-18T00:21:39;34.50;;;19.62;;
44987;SDS011;35735;52.226;21.254;2022-12-18T00:26:39;33.20;;;18.98;;
44987;SDS011;35735;52.226;21.254;2022-12-18T00:31:40;34.40;;;19.27;;
44987;SDS011;35735;52.226;21.254;2022-12-18T00:36:42;34.60;;;19.17;;
44987;SDS011;35735;52.226;21.254;2022-12-18T00:41:42;34.47;;;18.92;;
44987;SDS011;35735;52.226;21.254;2022-12-18T00:46:43;31.60;;;18.90;;
44987;SDS011;35735;52.226;21.254;2022-12-18T00:51:45;36.75;;;20.67;;
44987;SDS011;35735;52.226;21.254;2022-12-18T00:56:45;33.45;;;19.58;;
44987;SDS011;35735;52.226;21.254;2022-12-18T01:01:46;34.17;;;19.52;;
44987;SDS011;35735;52.226;21.254;2022-12-18T01:06:47;33.80;;;19.40;;
44987;SDS011;35735;52.226;21.254;2022-12-18T01:11:48;30.05;;;16.27;;
44987;SDS011;35735;52.226;21.254;2022-12-18T01:16:48;31.50;;;17.08;;
44987;SDS011;35735;52.226;21.254;2022-12-18T01:21:49;32.15;;;18.17;;
44987;SDS011;35735;52.226;21.254;2022-12-18T01:26:49;31.00;;;16.98;;
44987;SDS011;35735;52.226;21.254;2022-12-18T01:31:50;28.50;;;16.87;;
44987;SDS011;35735;52.226;21.254;2022-12-18T01:36:51;28.08;;;14.93;;
44987;SDS011;35735;52.226;21.254;2022-12-18T01:41:51;29.42;;;15.68;;
44987;SDS011;35735;52.226;21.254;2022-12-18T01:46:52;27.25;;;15.15;;
44987;SDS011;35735;52.226;21.254;2022-12-18T01:51:52;25.55;;;15.23;;
44987;SDS011;35735;52.226;21.254;2022-12-18T01:56:53;27.15;;;15.38;;
44987;SDS011;35735;52.226;21.254;2022-12-18T02:01:54;25.88;;;14.73;;
44987;SDS011;35735;52.226;21.254;2022-12-18T02:07:07;29.80;;;15.55;;
44987;SDS011;35735;52.226;21.254;2022-12-18T02:12:52;27.23;;;14.95;;
44987;SDS011;35735;52.226;21.254;2022-12-18T02:18:18;20.42;;;12.90;;
44987;SDS011;35735;52.226;21.254;2022-12-18T02:29:26;25.88;;;14.25;;
44987;SDS011;35735;52.226;21.254;2022-12-18T02:34:33;24.58;;;13.95;;
44987;SDS011;35735;52.226;21.254;2022-12-18T02:39:40;24.83;;;13.93;;
44987;SDS011;35735;52.226;21.254;2022-12-18T02:44:47;24.70;;;14.32;;
44987;SDS011;35735;52.226;21.254;2022-12-18T02:55:00;24.52;;;14.02;;
44987;SDS011;35735;52.226;21.254;2022-12-18T03:00:16;25.58;;;14.82;;
44987;SDS011;35735;52.226;21.254;2022-12-18T03:05:22;24.95;;;14.50;;
44987;SDS011;35735;52.226;21.254;2022-12-18T03:10:31;27.40;;;16.20;;
44987;SDS011;35735;52.226;21.254;2022-12-18T03:15:36;25.52;;;15.70;;
44987;SDS011;35735;52.226;21.254;2022-12-18T03:20:44;25.10;;;15.38;;
44987;SDS011;35735;52.226;21.254;2022-12-18T03:25:48;25.08;;;14.55;;
44987;SDS011;35735;52.226;21.254;2022-12-18T03:30:56;25.12;;;13.23;;
44987;SDS011;35735;52.226;21.254;2022-12-18T03:36:00;23.65;;;13.15;;
44987;SDS011;35735;52.226;21.254;2022-12-18T03:46:51;18.02;;;11.20;;
44987;SDS011;35735;52.226;21.254;2022-12-18T03:52:32;20.23;;;12.25;;
44987;SDS011;35735;52.226;21.254;2022-12-18T03:57:39;20.73;;;12.68;;
44987;SDS011;35735;52.226;21.254;2022-12-18T04:02:47;20.25;;;12.50;;
44987;SDS011;35735;52.226;21.254;2022-12-18T04:07:51;19.80;;;12.25;;
44987;SDS011;35735;52.226;21.254;2022-12-18T04:12:56;20.10;;;12.20;;
44987;SDS011;35735;52.226;21.254;2022-12-18T04:17:57;20.10;;;11.07;;
44987;SDS011;35735;52.226;21.254;2022-12-18T04:22:58;18.45;;;10.73;;
44987;SDS011;35735;52.226;21.254;2022-12-18T04:27:58;18.00;;;11.52;;
44987;SDS011;35735;52.226;21.254;2022-12-18T04:32:59;19.45;;;12.35;;
44987;SDS011;35735;52.226;21.254;2022-12-18T04:37:59;19.15;;;11.40;;
44987;SDS011;35735;52.226;21.254;2022-12-18T04:43:00;18.58;;;11.05;;
44987;SDS011;35735;52.226;21.254;2022-12-18T04:48:01;19.33;;;10.55;;
44987;SDS011;35735;52.226;21.254;2022-12-18T04:53:02;17.62;;;10.75;;
44987;SDS011;35735;52.226;21.254;2022-12-18T04:58:03;17.77;;;10.70;;
44987;SDS011;35735;52.226;21.254;2022-12-18T05:03:04;18.55;;;10.52;;
44987;SDS011;35735;52.226;21.254;2022-12-18T05:08:04;18.70;;;11.02;;
44987;SDS011;35735;52.226;21.254;2022-12-18T05:13:05;19.67;;;11.10;;
44987;SDS011;35735;52.226;21.254;2022-12-18T05:18:05;19.48;;;11.82;;
44987;SDS011;35735;52.226;21.254;2022-12-18T05:23:06;17.92;;;10.75;;
44987;SDS011;35735;52.226;21.254;2022-12-18T05:28:06;17.00;;;10.80;;
44987;SDS011;35735;52.226;21.254;2022-12-18T05:33:07;19.00;;;10.95;;
44987;SDS011;35735;52.226;21.254;2022-12-18T05:38:07;17.23;;;10.48;;
44987;SDS011;35735;52.226;21.254;2022-12-18T05:43:08;22.90;;;10.75;;
44987;SDS011;35735;52.226;21.254;2022-12-18T05:48:09;18.75;;;11.12;;
44987;SDS011;35735;52.226;21.254;2022-12-18T05:53:13;17.83;;;11.00;;
44987;SDS011;35735;52.226;21.254;2022-12-18T05:58:15;17.55;;;10.48;;
44987;SDS011;35735;52.226;21.254;2022-12-18T06:03:16;19.83;;;10.73;;
44987;SDS011;35735;52.226;21.254;2022-12-18T06:08:16;17.70;;;10.95;;
44987;SDS011;35735;52.226;21.254;2022-12-18T06:13:17;18.83;;;11.50;;
44987;SDS011;35735;52.226;21.254;2022-12-18T06:18:18;16.90;;;10.65;;
44987;SDS011;35735;52.226;21.254;2022-12-18T06:23:18;18.23;;;10.65;;
44987;SDS011;35735;52.226;21.254;2022-12-18T06:28:19;18.40;;;11.27;;
44987;SDS011;35735;52.226;21.254;2022-12-18T06:33:19;17.98;;;10.60;;
44987;SDS011;35735;52.226;21.254;2022-12-18T06:38:20;17.10;;;9.80;;
44987;SDS011;35735;52.226;21.254;2022-12-18T06:43:21;16.77;;;10.57;;
44987;SDS011;35735;52.226;21.254;2022-12-18T06:48:21;16.92;;;10.00;;
44987;SDS011;35735;52.226;21.254;2022-12-18T06:53:22;17.12;;;10.77;;
44987;SDS011;35735;52.226;21.254;2022-12-18T06:58:22;17.87;;;10.00;;
44987;SDS011;35735;52.226;21.254;2022-12-18T07:03:23;14.77;;;9.38;;
44987;SDS011;35735;52.226;21.254;2022-12-18T07:08:23;17.77;;;10.32;;
44987;SDS011;35735;52.226;21.254;2022-12-18T07:13:24;18.60;;;10.75;;
44987;SDS011;35735;52.226;21.254;2022-12-18T07:18:25;21.75;;;11.70;;
44987;SDS011;35735;52.226;21.254;2022-12-18T07:23:25;19.87;;;10.68;;
44987;SDS011;35735;52.226;21.254;2022-12-18T07:28:26;17.23;;;11.18;;
44987;SDS011;35735;52.226;21.254;2022-12-18T07:33:26;21.42;;;11.75;;
44987;SDS011;35735;52.226;21.254;2022-12-18T07:38:27;23.77;;;13.73;;
44987;SDS011;35735;52.226;21.254;2022-12-18T07:43:27;23.77;;;13.23;;
44987;SDS011;35735;52.226;21.254;2022-12-18T07:48:28;23.38;;;13.45;;
44987;SDS011;35735;52.226;21.254;2022-12-18T07:53:29;22.52;;;13.10;;
44987;SDS011;35735;52.226;21.254;2022-12-18T07:58:31;26.55;;;14.68;;
44987;SDS011;35735;52.226;21.254;2022-12-18T08:03:32;30.12;;;16.48;;
44987;SDS011;35735;52.226;21.254;2022-12-18T08:08:33;31.42;;;15.77;;
44987;SDS011;35735;52.226;21.254;2022-12-18T08:13:34;29.67;;;15.93;;
44987;SDS011;35735;52.226;21.254;2022-12-18T08:18:36;30.90;;;16.92;;
44987;SDS011;35735;52.226;21.254;2022-12-18T08:23:37;26.87;;;14.63;;
44987;SDS011;35735;52.226;21.254;2022-12-18T08:28:39;28.85;;;15.98;;
44987;SDS011;35735;52.226;21.254;2022-12-18T08:33:40;28.70;;;16.10;;
44987;SDS011;35735;52.226;21.254;2022-12-18T08:38:41;32.35;;;17.48;;
44987;SDS011;35735;52.226;21.254;2022-12-18T08:43:42;34.72;;;18.30;;
44987;SDS011;35735;52.226;21.254;2022-12-18T08:48:43;36.55;;;20.00;;
44987;SDS011;35735;52.226;21.254;2022-12-18T08:53:43;40.08;;;20.23;;
44987;SDS011;35735;52.226;21.254;2022-12-18T08:58:45;38.42;;;20.25;;
44987;SDS011;35735;52.226;21.254;2022-12-18T09:03:45;44.25;;;21.70;;
44987;SDS011;35735;52.226;21.254;2022-12-18T09:08:46;48.35;;;23.27;;
44987;SDS011;35735;52.226;21.254;2022-12-18T09:13:46;47.95;;;22.23;;
44987;SDS011;35735;52.226;21.254;2022-12-18T09:18:47;46.08;;;22.65;;
44987;SDS011;35735;52.226;21.254;2022-12-18T09:23:51;47.30;;;22.75;;
44987;SDS011;35735;52.226;21.254;2022-12-18T09:28:53;52.50;;;25.30;;
44987;SDS011;35735;52.226;21.254;2022-12-18T09:33:55;56.08;;;24.83;;
44987;SDS011;35735;52.226;21.254;2022-12-18T09:38:56;52.05;;;26.08;;
44987;SDS011;35735;52.226;21.254;2022-12-18T09:43:57;53.95;;;26.12;;
44987;SDS011;35735;52.226;21.254;2022-12-18T09:49:04;60.65;;;26.52;;
44987;SDS011;35735;52.226;21.254;2022-12-18T09:54:14;48.83;;;24.05;;
44987;SDS011;35735;52.226;21.254;2022-12-18T09:59:24;52.88;;;26.37;;
44987;SDS011;35735;52.226;21.254;2022-12-18T10:04:32;53.45;;;24.85;;
44987;SDS011;35735;52.226;21.254;2022-12-18T10:09:43;50.65;;;24.25;;
44987;SDS011;35735;52.226;21.254;2022-12-18T10:20:54;50.80;;;24.45;;
44987;SDS011;35735;52.226;21.254;2022-12-18T10:26:25;50.05;;;25.00;;
44987;SDS011;35735;52.226;21.254;2022-12-18T10:31:26;49.83;;;23.83;;
44987;SDS011;35735;52.226;21.254;2022-12-18T10:36:27;53.30;;;26.15;;
44987;SDS011;35735;52.226;21.254;2022-12-18T10:41:27;47.30;;;23.25;;
44987;SDS011;35735;52.226;21.254;2022-12-18T10:46:28;46.25;;;22.98;;
44987;SDS011;35735;52.226;21.254;2022-12-18T10:56:34;40.53;;;21.73;;
44987;SDS011;35735;52.226;21.254;2022-12-18T11:12:04;45.08;;;22.90;;
44987;SDS011;35735;52.226;21.254;2022-12-18T11:17:20;50.70;;;24.87;;
44987;SDS011;35735;52.226;21.254;2022-12-18T11:22:31;42.42;;;22.95;;
44987;SDS011;35735;52.226;21.254;2022-12-18T11:27:35;47.83;;;24.73;;
44987;SDS011;35735;52.226;21.254;2022-12-18T11:32:37;47.83;;;24.15;;
44987;SDS011;35735;52.226;21.254;2022-12-18T11:37:56;50.88;;;25.48;;
44987;SDS011;35735;52.226;21.254;2022-12-18T11:48:18;47.25;;;25.30;;
44987;SDS011;35735;52.226;21.254;2022-12-18T11:53:44;48.85;;;25.55;;
44987;SDS011;35735;52.226;21.254;2022-12-18T11:58:50;47.75;;;25.33;;
44987;SDS011;35735;52.226;21.254;2022-12-18T12:09:57;53.42;;;25.92;;
44987;SDS011;35735;52.226;21.254;2022-12-18T12:15:06;47.92;;;26.00;;
44987;SDS011;35735;52.226;21.254;2022-12-18T12:26:34;51.22;;;26.20;;
44987;SDS011;35735;52.226;21.254;2022-12-18T12:31:58;51.03;;;25.37;;
44987;SDS011;35735;52.226;21.254;2022-12-18T12:42:42;52.70;;;25.50;;
44987;SDS011;35735;52.226;21.254;2022-12-18T12:47:53;53.95;;;26.20;;
44987;SDS011;35735;52.226;21.254;2022-12-18T12:52:55;51.00;;;26.83;;
44987;SDS011;35735;52.226;21.254;2022-12-18T12:58:22;53.38;;;27.35;;
44987;SDS011;35735;52.226;21.254;2022-12-18T13:03:41;52.10;;;26.50;;
44987;SDS011;35735;52.226;21.254;2022-12-18T13:08:56;54.85;;;26.27;;
44987;SDS011;35735;52.226;21.254;2022-12-18T13:13:59;57.00;;;27.48;;
44987;SDS011;35735;52.226;21.254;2022-12-18T13:19:00;57.00;;;27.62;;
44987;SDS011;35735;52.226;21.254;2022-12-18T13:24:23;53.58;;;26.37;;
44987;SDS011;35735;52.226;21.254;2022-12-18T13:29:44;55.65;;;27.87;;
44987;SDS011;35735;52.226;21.254;2022-12-18T13:34:45;60.33;;;29.08;;
44987;SDS011;35735;52.226;21.254;2022-12-18T13:39:46;59.72;;;29.23;;
44987;SDS011;35735;52.226;21.254;2022-12-18T13:44:46;58.42;;;29.48;;
44987;SDS011;35735;52.226;21.254;2022-12-18T13:49:47;58.28;;;29.45;;
44987;SDS011;35735;52.226;21.254;2022-12-18T13:54:52;56.42;;;26.87;;
44987;SDS011;35735;52.226;21.254;2022-12-18T13:59:56;53.70;;;26.42;;
44987;SDS011;35735;52.226;21.254;2022-12-18T14:04:58;53.78;;;26.10;;
44987;SDS011;35735;52.226;21.254;2022-12-18T14:09:59;56.58;;;28.40;;
44987;SDS011;35735;52.226;21.254;2022-12-18T14:15:01;60.67;;;29.27;;
44987;SDS011;35735;52.226;21.254;2022-12-18T14:20:03;54.28;;;27.50;;
44987;SDS011;35735;52.226;21.254;2022-12-18T14:30:24;53.90;;;26.98;;
44987;SDS011;35735;52.226;21.254;2022-12-18T14:35:32;59.15;;;28.85;;
44987;SDS011;35735;52.226;21.254;2022-12-18T14:40:37;52.15;;;26.95;;
44987;SDS011;35735;52.226;21.254;2022-12-18T14:45:41;58.03;;;26.98;;
44987;SDS011;35735;52.226;21.254;2022-12-18T14:50:44;55.85;;;27.25;;
44987;SDS011;35735;52.226;21.254;2022-12-18T14:55:54;55.05;;;27.02;;
44987;SDS011;35735;52.226;21.254;2022-12-18T15:00:55;54.35;;;26.73;;
44987;SDS011;35735;52.226;21.254;2022-12-18T15:05:55;52.47;;;27.30;;
44987;SDS011;35735;52.226;21.254;2022-12-18T15:10:56;55.70;;;25.85;;
44987;SDS011;35735;52.226;21.254;2022-12-18T15:15:58;49.80;;;25.85;;
44987;SDS011;35735;52.226;21.254;2022-12-18T15:21:07;52.65;;;26.37;;
44987;SDS011;35735;52.226;21.254;2022-12-18T15:26:11;54.63;;;26.77;;
44987;SDS011;35735;52.226;21.254;2022-12-18T15:36:16;53.77;;;27.10;;
44987;SDS011;35735;52.226;21.254;2022-12-18T15:41:18;52.85;;;25.62;;
44987;SDS011;35735;52.226;21.254;2022-12-18T15:46:22;49.13;;;24.20;;
44987;SDS011;35735;52.226;21.254;2022-12-18T15:51:26;50.38;;;24.17;;
44987;SDS011;35735;52.226;21.254;2022-12-18T15:56:30;51.50;;;24.77;;
44987;SDS011;35735;52.226;21.254;2022-12-18T16:01:30;46.88;;;23.50;;
44987;SDS011;35735;52.226;21.254;2022-12-18T16:06:31;52.70;;;25.17;;
44987;SDS011;35735;52.226;21.254;2022-12-18T16:11:32;52.67;;;26.23;;
44987;SDS011;35735;52.226;21.254;2022-12-18T16:16:34;51.50;;;26.42;;
44987;SDS011;35735;52.226;21.254;2022-12-18T16:21:35;47.08;;;24.70;;
44987;SDS011;35735;52.226;21.254;2022-12-18T16:26:35;55.20;;;27.60;;
44987;SDS011;35735;52.226;21.254;2022-12-18T16:31:36;47.38;;;25.10;;
44987;SDS011;35735;52.226;21.254;2022-12-18T16:36:37;49.30;;;24.50;;
44987;SDS011;35735;52.226;21.254;2022-12-18T16:41:38;49.75;;;25.20;;
44987;SDS011;35735;52.226;21.254;2022-12-18T16:46:38;49.17;;;24.05;;
44987;SDS011;35735;52.226;21.254;2022-12-18T16:51:39;50.85;;;25.25;;
44987;SDS011;35735;52.226;21.254;2022-12-18T16:56:40;46.90;;;24.25;;
44987;SDS011;35735;52.226;21.254;2022-12-18T17:01:40;47.00;;;23.25;;
44987;SDS011;35735;52.226;21.254;2022-12-18T17:06:42;47.20;;;22.23;;
44987;SDS011;35735;52.226;21.254;2022-12-18T17:11:45;46.15;;;23.15;;
44987;SDS011;35735;52.226;21.254;2022-12-18T17:16:45;49.50;;;25.12;;
44987;SDS011;35735;52.226;21.254;2022-12-18T17:21:47;48.87;;;24.27;;
44987;SDS011;35735;52.226;21.254;2022-12-18T17:26:49;44.88;;;23.70;;
44987;SDS011;35735;52.226;21.254;2022-12-18T17:31:49;46.33;;;24.00;;
44987;SDS011;35735;52.226;21.254;2022-12-18T17:36:50;53.10;;;25.02;;
44987;SDS011;35735;52.226;21.254;2022-12-18T17:41:51;51.55;;;25.77;;
44987;SDS011;35735;52.226;21.254;2022-12-18T17:46:51;52.17;;;24.75;;
44987;SDS011;35735;52.226;21.254;2022-12-18T17:51:52;49.67;;;24.27;;
44987;SDS011;35735;52.226;21.254;2022-12-18T17:56:52;47.65;;;24.30;;
44987;SDS011;35735;52.226;21.254;2022-12-18T18:01:53;46.80;;;23.85;;
44987;SDS011;35735;52.226;21.254;2022-12-18T18:06:53;43.10;;;23.17;;
44987;SDS011;35735;52.226;21.254;2022-12-18T18:11:54;45.67;;;22.25;;
44987;SDS011;35735;52.226;21.254;2022-12-18T18:16:54;50.12;;;23.00;;
44987;SDS011;35735;52.226;21.254;2022-12-18T18:21:55;47.15;;;24.60;;
44987;SDS011;35735;52.226;21.254;2022-12-18T18:26:55;49.47;;;24.70;;
44987;SDS011;35735;52.226;21.254;2022-12-18T18:31:56;46.63;;;24.23;;
44987;SDS011;35735;52.226;21.254;2022-12-18T18:36:57;49.35;;;24.77;;
44987;SDS011;35735;52.226;21.254;2022-12-18T18:41:58;50.33;;;25.15;;
44987;SDS011;35735;52.226;21.254;2022-12-18T18:46:59;47.30;;;24.37;;
44987;SDS011;35735;52.226;21.254;2022-12-18T18:52:00;45.97;;;24.15;;
44987;SDS011;35735;52.226;21.254;2022-12-18T18:57:00;47.58;;;23.42;;
44987;SDS011;35735;52.226;21.254;2022-12-18T19:02:01;42.35;;;21.90;;
44987;SDS011;35735;52.226;21.254;2022-12-18T19:07:01;43.58;;;22.05;;
44987;SDS011;35735;52.226;21.254;2022-12-18T19:12:02;46.75;;;21.65;;
44987;SDS011;35735;52.226;21.254;2022-12-18T19:17:03;45.28;;;24.23;;
44987;SDS011;35735;52.226;21.254;2022-12-18T19:22:03;44.13;;;22.87;;
44987;SDS011;35735;52.226;21.254;2022-12-18T19:27:05;44.92;;;22.50;;
44987;SDS011;35735;52.226;21.254;2022-12-18T19:32:06;44.60;;;21.85;;
44987;SDS011;35735;52.226;21.254;2022-12-18T19:37:07;43.70;;;22.02;;
44987;SDS011;35735;52.226;21.254;2022-12-18T19:42:07;39.65;;;20.80;;
44987;SDS011;35735;52.226;21.254;2022-12-18T19:47:08;44.40;;;22.50;;
44987;SDS011;35735;52.226;21.254;2022-12-18T19:52:08;41.42;;;21.30;;
44987;SDS011;35735;52.226;21.254;2022-12-18T19:57:09;41.88;;;21.35;;
44987;SDS011;35735;52.226;21.254;2022-12-18T20:02:12;41.55;;;21.25;;
44987;SDS011;35735;52.226;21.254;2022-12-18T20:07:13;44.45;;;22.20;;
44987;SDS011;35735;52.226;21.254;2022-12-18T20:12:13;43.38;;;22.23;;
44987;SDS011;35735;52.226;21.254;2022-12-18T20:17:14;44.63;;;23.00;;
44987;SDS011;35735;52.226;21.254;2022-12-18T20:22:14;42.08;;;22.33;;
44987;SDS011;35735;52.226;21.254;2022-12-18T20:27:15;39.20;;;19.45;;
44987;SDS011;35735;52.226;21.254;2022-12-18T20:32:16;39.00;;;19.77;;
44987;SDS011;35735;52.226;21.254;2022-12-18T20:37:16;35.10;;;18.80;;
44987;SDS011;35735;52.226;21.254;2022-12-18T20:42:17;35.35;;;18.30;;
44987;SDS011;35735;52.226;21.254;2022-12-18T20:47:17;37.35;;;19.02;;
44987;SDS011;35735;52.226;21.254;2022-12-18T20:52:18;37.03;;;18.52;;
44987;SDS011;35735;52.226;21.254;2022-12-18T20:57:18;38.17;;;18.50;;
44987;SDS011;35735;52.226;21.254;2022-12-18T21:02:19;39.55;;;18.05;;
44987;SDS011;35735;52.226;21.254;2022-12-18T21:07:19;35.92;;;18.10;;
44987;SDS011;35735;52.226;21.254;2022-12-18T21:12:20;32.25;;;16.85;;
44987;SDS011;35735;52.226;21.254;2022-12-18T21:17:20;33.38;;;17.08;;
44987;SDS011;35735;52.226;21.254;2022-12-18T21:22:21;34.78;;;17.10;;
44987;SDS011;35735;52.226;21.254;2022-12-18T21:27:22;35.92;;;16.98;;
44987;SDS011;35735;52.226;21.254;2022-12-18T21:32:22;28.58;;;14.23;;
44987;SDS011;35735;52.226;21.254;2022-12-18T21:37:23;31.65;;;16.50;;
44987;SDS011;35735;52.226;21.254;2022-12-18T21:42:23;35.15;;;17.37;;
44987;SDS011;35735;52.226;21.254;2022-12-18T21:47:24;32.75;;;14.95;;
44987;SDS011;35735;52.226;21.254;2022-12-18T21:52:24;30.10;;;14.85;;
44987;SDS011;35735;52.226;21.254;2022-12-18T21:57:25;31.02;;;15.43;;
44987;SDS011;35735;52.226;21.254;2022-12-18T22:02:26;29.77;;;14.82;;
44987;SDS011;35735;52.226;21.254;2022-12-18T22:07:26;28.75;;;14.63;;
44987;SDS011;35735;52.226;21.254;2022-12-18T22:12:27;30.45;;;14.63;;
44987;SDS011;35735;52.226;21.254;2022-12-18T22:17:27;25.75;;;13.85;;
44987;SDS011;35735;52.226;21.254;2022-12-18T22:22:28;28.35;;;14.75;;
44987;SDS011;35735;52.226;21.254;2022-12-18T22:27:28;30.45;;;15.40;;
44987;SDS011;35735;52.226;21.254;2022-12-18T22:32:32;26.87;;;14.80;;
44987;SDS011;35735;52.226;21.254;2022-12-18T22:37:34;29.77;;;15.57;;
44987;SDS011;35735;52.226;21.254;2022-12-18T22:42:35;28.83;;;14.05;;
44987;SDS011;35735;52.226;21.254;2022-12-18T22:47:35;29.17;;;13.95;;
44987;SDS011;35735;52.226;21.254;2022-12-18T22:52:36;30.25;;;15.15;;
44987;SDS011;35735;52.226;21.254;2022-12-18T22:57:36;31.40;;;14.70;;
44987;SDS011;35735;52.226;21.254;2022-12-18T23:02:37;28.35;;;14.57;;
44987;SDS011;35735;52.226;21.254;2022-12-18T23:07:37;27.77;;;14.40;;
44987;SDS011;35735;52.226;21.254;2022-12-18T23:12:38;29.08;;;14.68;;
44987;SDS011;35735;52.226;21.254;2022-12-18T23:17:38;26.92;;;13.88;;
44987;SDS011;35735;52.226;21.254;2022-12-18T23:22:39;26.77;;;12.90;;
44987;SDS011;35735;52.226;21.254;2022-12-18T23:27:39;26.55;;;12.50;;
44987;SDS011;35735;52.226;21.254;2022-12-18T23:32:40;25.20;;;12.63;;
44987;SDS011;35735;52.226;21.254;2022-12-18T23:37:40;24.05;;;11.30;;
44987;SDS011;35735;52.226;21.254;2022-12-18T23:42:41;20.30;;;10.40;;
44987;SDS011;35735;52.226;21.254;2022-12-18T23:47:41;22.10;;;10.98;;
44987;SDS011;35735;52.226;21.254;2022-12-18T23:52:42;22.05;;;10.90;;
44987;SDS011;35735;52.226;21.254;2022-12-18T23:57:43;21.73;;;10.57;;
